Time;durP1;ratioP1;P1;durP2;ratioP2;P2;SDS_P1;SDS_P2;PMS_P1;PMS_P2;Temp;Humidity;BMP_temperature;BMP_pressure;BME280_temperature;BME280_humidity;BME280_pressure;Samples;Min_cycle;Max_cycle;Signal;HPM_P1;HPM_P2
2022/05/01 00:00:25;;;;;;;44.55;25.43;;;;;;;7.21;56.97;100889.33;1814543;79;27322;-68
2022/05/01 00:02:53;;;;;;;47.30;26.55;;;;;;;7.16;57.09;100887.44;1814481;79;25551;-69
2022/05/01 00:05:19;;;;;;;45.23;27.10;;;;;;;7.09;57.50;100893.09;1814534;79;25604;-68
2022/05/01 00:07:46;;;;;;;41.48;25.05;;;;;;;7.08;57.25;100892.84;1814519;78;25532;-68
2022/05/01 00:10:12;;;;;;;44.67;26.55;;;;;;;7.05;57.62;100888.00;1814561;79;25527;-68
2022/05/01 00:12:39;;;;;;;40.03;24.27;;;;;;;7.01;57.70;100888.80;1814513;78;27293;-67
2022/05/01 00:15:07;;;;;;;45.45;24.15;;;;;;;6.96;57.74;100888.26;1814560;78;25441;-68
2022/05/01 00:17:33;;;;;;;46.65;26.87;;;;;;;6.85;57.77;100879.40;1814556;79;25436;-67
2022/05/01 00:19:59;;;;;;;44.38;27.22;;;;;;;6.82;57.96;100886.66;1814575;78;26085;-67
2022/05/01 00:22:26;;;;;;;56.10;30.12;;;;;;;6.76;58.05;100885.58;1814710;79;25392;-67
2022/05/01 00:24:52;;;;;;;52.88;29.15;;;;;;;6.69;58.19;100886.66;1814679;78;28111;-67
2022/05/01 00:27:18;;;;;;;52.73;29.70;;;;;;;6.63;58.35;100886.38;1814515;79;25770;-68
2022/05/01 00:29:47;;;;;;;58.20;31.80;;;;;;;6.58;58.49;100890.41;1814563;79;25495;-69
2022/05/01 00:32:13;;;;;;;61.95;32.95;;;;;;;6.55;58.57;100885.56;1814391;79;25598;-68
2022/05/01 00:37:24;;;;;;;62.53;33.67;;;;;;;6.45;58.66;100881.00;1814648;79;27533;-68
2022/05/01 00:39:50;;;;;;;62.48;33.13;;;;;;;6.38;58.63;100879.63;1814494;78;25605;-68
2022/05/01 00:42:17;;;;;;;65.60;32.98;;;;;;;6.34;58.84;100879.36;1814634;79;25606;-68
2022/05/01 00:44:44;;;;;;;61.85;32.93;;;;;;;6.27;59.07;100878.81;1814583;79;25569;-68
2022/05/01 00:47:11;;;;;;;62.38;32.30;;;;;;;6.22;59.26;100880.15;1814660;79;25542;-68
2022/05/01 00:49:37;;;;;;;55.95;30.27;;;;;;;6.17;59.22;100876.36;1814553;79;27402;-68
2022/05/01 00:52:10;;;;;;;49.55;29.35;;;;;;;6.12;59.26;100879.03;1814533;79;25585;-68
2022/05/01 00:54:39;;;;;;;57.67;31.62;;;;;;;6.08;58.94;100881.16;1814584;79;25603;-68
2022/05/01 00:57:07;;;;;;;49.88;28.25;;;;;;;6.02;59.35;100879.55;1814594;79;25604;-68
2022/05/01 00:59:36;;;;;;;52.13;29.63;;;;;;;5.97;59.26;100885.16;1814523;79;25440;-68
2022/05/01 01:02:04;;;;;;;53.52;28.87;;;;;;;5.93;59.67;100884.59;1814506;79;28100;-68
2022/05/01 01:04:30;;;;;;;51.30;28.87;;;;;;;5.87;59.92;100882.41;1814414;79;25417;-68
2022/05/01 01:06:56;;;;;;;52.85;28.02;;;;;;;5.82;60.13;100886.41;1814482;79;29979;-68
2022/05/01 01:09:23;;;;;;;51.05;27.82;;;;;;;5.77;60.30;100881.02;1814446;79;25527;-68
2022/05/01 01:12:53;;;;;;;55.78;28.38;;;;;;;5.73;60.37;100883.42;1814492;79;25388;-68
2022/05/01 01:14:22;;;;;;;50.40;28.00;;;;;;;5.69;60.45;100881.55;1810565;79;27371;-68
2022/05/01 01:16:48;;;;;;;46.80;27.77;;;;;;;5.63;60.79;100879.90;1814426;79;25397;-68
2022/05/01 01:19:14;;;;;;;48.80;27.65;;;;;;;5.58;61.00;100883.36;1814485;79;29533;-68
2022/05/01 01:21:40;;;;;;;49.10;26.30;;;;;;;5.52;61.02;100877.16;1814476;79;25548;-68
2022/05/01 01:24:10;;;;;;;51.23;27.55;;;;;;;5.51;61.40;100878.22;1814515;79;32692;-69
2022/05/01 01:26:37;;;;;;;44.40;24.63;;;;;;;5.48;61.43;100879.28;1814432;79;27317;-68
2022/05/01 01:31:40;;;;;;;41.02;24.12;;;;;;;5.43;61.63;100876.02;1814398;79;25471;-68
2022/05/01 01:31:43;;;;;;;37.13;23.83;;;;;;;5.36;61.94;100872.77;1810665;79;25574;-68
2022/05/01 01:34:15;;;;;;;44.03;23.15;;;;;;;5.31;62.04;100872.23;1814446;78;26047;-68
2022/05/01 01:36:42;;;;;;;43.05;25.45;;;;;;;5.27;62.18;100872.45;1814540;79;25618;-68
2022/05/01 01:39:08;;;;;;;40.55;23.05;;;;;;;5.22;62.11;100871.08;1814573;78;29522;-68
2022/05/01 01:41:38;;;;;;;40.80;23.10;;;;;;;5.17;62.01;100875.08;1814473;79;25464;-68
2022/05/01 01:44:06;;;;;;;42.45;24.60;;;;;;;5.13;62.09;100870.77;1814692;79;30058;-69
2022/05/01 01:46:32;;;;;;;42.20;25.30;;;;;;;5.12;62.49;100871.02;1814438;79;25535;-69
2022/05/01 01:48:59;;;;;;;41.40;24.40;;;;;;;5.11;62.50;100869.39;1814593;79;25603;-69
2022/05/01 01:51:25;;;;;;;36.15;21.62;;;;;;;5.09;62.89;100868.34;1814505;79;27153;-69
2022/05/01 01:53:52;;;;;;;36.60;22.22;;;;;;;5.06;63.01;100868.84;1814462;79;33197;-69
2022/05/01 01:56:19;;;;;;;34.65;21.12;;;;;;;5.07;62.79;100875.00;1814453;79;25633;-67
2022/05/01 01:58:45;;;;;;;37.40;21.55;;;;;;;5.07;63.49;100873.66;1814512;79;25385;-68
2022/05/01 02:01:11;;;;;;;37.08;20.80;;;;;;;5.05;63.23;100870.70;1814575;79;32390;-68
2022/05/01 02:03:38;;;;;;;35.30;21.52;;;;;;;5.03;63.48;100869.35;1814437;79;27321;-69
2022/05/01 02:06:05;;;;;;;38.00;23.00;;;;;;;5.01;63.32;100872.29;1814382;79;25384;-68
2022/05/01 02:08:40;;;;;;;42.70;24.05;;;;;;;4.98;63.65;100875.48;1814421;79;25594;-68
2022/05/01 02:11:04;;;;;;;39.13;24.32;;;;;;;4.93;63.32;100871.42;1812425;79;25538;-69
2022/05/01 02:13:31;;;;;;;41.50;24.35;;;;;;;4.89;63.48;100866.31;1814677;78;25623;-68
2022/05/01 02:15:57;;;;;;;42.53;24.25;;;;;;;4.86;63.41;100866.27;1814371;78;27315;-68
2022/05/01 02:18:25;;;;;;;45.92;24.92;;;;;;;4.82;63.75;100860.36;1814424;79;25607;-68
2022/05/01 02:23:55;;;;;;;38.60;24.18;;;;;;;4.74;63.90;100859.48;1824533;78;25609;-69
2022/05/01 02:26:21;;;;;;;40.03;23.80;;;;;;;4.68;63.50;100865.31;1824516;78;25385;-69
2022/05/01 02:28:47;;;;;;;40.20;23.73;;;;;;;4.64;63.50;100858.32;1858165;77;27427;-69
2022/05/01 02:31:13;;;;;;;43.23;24.15;;;;;;;4.61;63.93;100854.81;1858001;77;27129;-68
2022/05/01 02:33:40;;;;;;;41.68;24.67;;;;;;;4.57;64.07;100852.91;1858151;77;25414;-68
2022/05/01 02:36:07;;;;;;;40.43;23.62;;;;;;;4.55;64.21;100850.48;1858132;77;25626;-69
2022/05/01 02:38:34;;;;;;;36.45;23.85;;;;;;;4.54;64.13;100853.42;1858171;77;25380;-69
2022/05/01 02:41:02;;;;;;;37.98;23.55;;;;;;;4.51;64.40;100853.92;1858158;77;27292;-69
2022/05/01 02:43:29;;;;;;;40.92;26.15;;;;;;;4.49;64.14;100861.70;1858339;77;25608;-69
2022/05/01 02:45:55;;;;;;;35.85;22.98;;;;;;;4.47;64.65;100853.63;1858159;77;25447;-69
2022/05/01 02:48:21;;;;;;;38.63;24.27;;;;;;;4.44;64.76;100848.77;1858115;77;35112;-69
2022/05/01 02:50:47;;;;;;;35.17;22.45;;;;;;;4.41;64.89;100850.61;1858161;77;32549;-69
2022/05/01 02:53:12;;;;;;;40.25;23.52;;;;;;;4.37;64.74;100854.33;1858170;77;27404;-69
2022/05/01 02:55:38;;;;;;;37.65;23.10;;;;;;;4.35;64.72;100849.77;1858100;77;32799;-69
2022/05/01 02:58:05;;;;;;;37.10;22.60;;;;;;;4.32;65.04;100858.30;1858097;77;25638;-70
2022/05/01 03:00:31;;;;;;;39.85;23.22;;;;;;;4.28;65.30;100852.64;1858125;77;26072;-69
2022/05/01 03:02:57;;;;;;;39.78;23.90;;;;;;;4.23;65.33;100863.30;1858271;77;25588;-69
2022/05/01 03:05:24;;;;;;;36.10;23.67;;;;;;;4.21;65.30;100857.94;1858322;77;28047;-69
2022/05/01 03:07:53;;;;;;;39.30;23.98;;;;;;;4.18;65.40;100861.12;1858300;77;27202;-69
2022/05/01 03:10:19;;;;;;;40.55;22.82;;;;;;;4.14;65.54;100859.98;1858302;77;25467;-69
2022/05/01 03:12:45;;;;;;;39.80;22.85;;;;;;;4.12;65.67;100864.28;1858234;77;25518;-69
2022/05/01 03:15:11;;;;;;;37.05;22.90;;;;;;;4.09;65.44;100862.09;1858324;77;25598;-69
2022/05/01 03:23:07;;;;;;;38.25;23.42;;;;;;;4.01;65.95;100863.34;1850267;77;25465;-69
2022/05/01 03:25:34;;;;;;;37.10;22.45;;;;;;;3.98;66.43;100854.47;1770389;80;25558;-69
2022/05/01 03:28:01;;;;;;;36.33;22.45;;;;;;;3.99;66.50;100860.65;1801876;79;25435;-69
2022/05/01 03:30:27;;;;;;;36.45;21.33;;;;;;;3.98;66.58;100866.52;1801736;79;27437;-69
2022/05/01 03:32:54;;;;;;;38.33;23.73;;;;;;;3.99;66.55;100867.34;1801773;79;27146;-69
2022/05/01 03:35:20;;;;;;;35.13;23.15;;;;;;;3.98;66.70;100863.84;1801897;79;29636;-68
2022/05/01 03:37:47;;;;;;;36.75;22.27;;;;;;;3.99;66.81;100867.34;1801855;79;25357;-68
2022/05/01 03:40:15;;;;;;;36.65;22.30;;;;;;;3.96;66.70;100865.16;1801843;79;32273;-69
2022/05/01 03:42:43;;;;;;;35.78;22.95;;;;;;;3.98;66.74;100865.17;1802010;79;27374;-69
2022/05/01 03:45:10;;;;;;;35.38;22.17;;;;;;;4.02;66.72;100870.83;1801658;79;25625;-69
2022/05/01 03:47:37;;;;;;;31.77;21.93;;;;;;;4.03;67.04;100868.45;1750880;81;25497;-69
2022/05/01 03:50:05;;;;;;;37.60;23.35;;;;;;;4.03;66.66;100864.43;1801701;79;25604;-69
2022/05/01 03:52:33;;;;;;;37.45;22.35;;;;;;;4.04;67.06;100864.19;1801754;79;25581;-68
2022/05/01 03:54:59;;;;;;;40.52;23.22;;;;;;;4.08;66.99;100866.63;1770403;81;27340;-69
2022/05/01 03:57:25;;;;;;;38.10;22.17;;;;;;;4.10;67.40;100867.20;1801667;79;25652;-68
2022/05/01 03:59:52;;;;;;;36.17;22.15;;;;;;;4.15;67.26;100862.95;1801751;79;25647;-68
2022/05/01 04:02:18;;;;;;;37.90;22.58;;;;;;;4.18;67.46;100873.16;1801699;79;25557;-68
2022/05/01 04:04:45;;;;;;;33.23;21.70;;;;;;;4.19;67.38;100876.10;1801759;79;32339;-68
2022/05/01 04:07:12;;;;;;;32.70;21.02;;;;;;;4.20;67.50;100871.84;1801763;79;27488;-68
2022/05/01 04:09:38;;;;;;;40.17;22.73;;;;;;;4.23;67.59;100874.02;1801621;79;33186;-68
2022/05/01 04:12:07;;;;;;;36.58;22.75;;;;;;;4.25;67.61;100875.91;1801717;79;25577;-68
2022/05/01 04:14:34;;;;;;;35.00;20.92;;;;;;;4.28;67.60;100876.75;1801618;79;25569;-68
2022/05/01 04:17:01;;;;;;;37.50;21.80;;;;;;;4.34;67.69;100878.94;1801748;79;25400;-68
2022/05/01 04:19:28;;;;;;;39.55;22.35;;;;;;;4.38;67.87;100877.92;1770387;81;29573;-68
2022/05/01 04:21:55;;;;;;;38.33;23.85;;;;;;;4.42;67.69;100877.69;1801609;79;25635;-69
2022/05/01 04:24:22;;;;;;;35.50;23.27;;;;;;;4.48;67.75;100876.69;1819419;78;25543;-70
2022/05/01 04:26:48;;;;;;;38.15;22.10;;;;;;;4.56;68.04;100874.86;1854888;77;25623;-69
2022/05/01 04:31:58;;;;;;;38.55;22.35;;;;;;;4.71;68.35;100880.09;1854962;77;27532;-69
2022/05/01 04:34:24;;;;;;;36.90;22.22;;;;;;;4.79;68.49;100875.07;1821332;78;33111;-69
2022/05/01 04:36:50;;;;;;;40.48;22.77;;;;;;;4.89;68.65;100874.86;1821370;78;25577;-69
2022/05/01 04:39:17;;;;;;;31.52;21.17;;;;;;;4.97;68.62;100877.08;1854897;77;34827;-69
2022/05/01 04:41:43;;;;;;;33.23;22.15;;;;;;;5.07;68.99;100877.14;1821406;78;25586;-69
2022/05/01 04:44:10;;;;;;;36.40;21.65;;;;;;;5.16;69.21;100879.64;1854909;77;29556;-69
2022/05/01 04:46:36;;;;;;;34.90;20.95;;;;;;;5.28;69.26;100873.25;1821298;78;25731;-69
2022/05/01 04:49:03;;;;;;;33.18;21.23;;;;;;;5.40;69.43;100873.88;1821339;78;25555;-69
2022/05/01 04:51:30;;;;;;;34.00;21.93;;;;;;;5.52;69.36;100875.83;1821332;78;25628;-69
2022/05/01 04:53:57;;;;;;;37.95;22.13;;;;;;;5.65;69.65;100880.44;1821425;78;25606;-69
2022/05/01 04:59:09;;;;;;;32.65;20.88;;;;;;;5.95;69.97;100874.39;1821296;78;27157;-69
2022/05/01 05:01:36;;;;;;;30.05;20.62;;;;;;;6.10;70.25;100876.36;1821342;78;29608;-70
2022/05/01 05:04:03;;;;;;;44.63;27.40;;;;;;;6.24;70.25;100874.77;1821308;78;25400;-70
2022/05/01 05:06:31;;;;;;;42.25;25.25;;;;;;;6.39;70.17;100874.00;1821457;78;25458;-70
2022/05/01 05:11:41;;;;;;;26.95;18.05;;;;;;;6.68;69.98;100862.73;1821247;78;25591;-69
2022/05/01 05:14:07;;;;;;;27.95;17.80;;;;;;;6.87;70.10;100857.62;1821371;78;25467;-70
2022/05/01 05:16:34;;;;;;;30.05;18.12;;;;;;;7.02;69.73;100867.02;1821347;78;25456;-70
2022/05/01 05:19:00;;;;;;;24.70;17.25;;;;;;;7.19;69.71;100862.69;1821377;78;25604;-70
2022/05/01 05:21:26;;;;;;;29.57;17.25;;;;;;;7.34;69.48;100858.34;1821387;78;27382;-70
2022/05/01 05:23:54;;;;;;;25.15;16.82;;;;;;;7.52;69.35;100863.13;1824993;78;25955;-70
2022/05/01 05:26:20;;;;;;;24.05;17.02;;;;;;;7.69;68.95;100866.84;1827406;78;25563;-70
2022/05/01 05:28:46;;;;;;;25.68;16.30;;;;;;;7.90;68.69;100870.80;1827393;78;25929;-70
2022/05/01 05:31:12;;;;;;;25.05;16.25;;;;;;;8.10;68.57;100872.04;1827420;78;32356;-70
2022/05/01 05:33:38;;;;;;;24.72;16.10;;;;;;;8.31;68.15;100877.30;1827450;78;28064;-70
2022/05/01 05:36:05;;;;;;;24.72;16.15;;;;;;;8.55;68.02;100882.87;1827346;78;25398;-70
2022/05/01 05:38:33;;;;;;;21.02;14.55;;;;;;;8.77;67.63;100887.83;1827448;78;25617;-70
2022/05/01 05:41:00;;;;;;;23.10;16.10;;;;;;;8.98;67.11;100881.70;1827437;78;25592;-70
2022/05/01 05:43:27;;;;;;;23.15;15.93;;;;;;;9.20;66.35;100874.48;1827435;78;25555;-70
2022/05/01 05:45:53;;;;;;;27.77;15.15;;;;;;;9.44;65.86;100884.50;1827393;78;27330;-70
2022/05/01 05:48:19;;;;;;;23.12;15.75;;;;;;;9.65;65.28;100888.59;1827298;78;25542;-70
2022/05/01 05:50:46;;;;;;;34.18;21.30;;;;;;;9.85;65.15;100883.47;1827390;78;29576;-70
2022/05/01 05:53:12;;;;;;;30.20;18.80;;;;;;;10.06;64.59;100885.38;1827363;78;26006;-70
2022/05/01 05:55:38;;;;;;;27.62;15.90;;;;;;;10.24;63.99;100885.67;1827442;78;25431;-70
2022/05/01 05:58:04;;;;;;;22.22;16.23;;;;;;;10.41;63.53;100895.45;1827430;78;27593;-70
2022/05/01 06:00:30;;;;;;;19.82;14.68;;;;;;;10.60;63.32;100886.53;1827300;78;33273;-70
2022/05/01 06:02:57;;;;;;;20.75;14.93;;;;;;;10.84;63.28;100893.17;1827416;78;25598;-70
2022/05/01 06:05:23;;;;;;;22.55;14.73;;;;;;;11.05;62.36;100895.53;1827359;78;25606;-70
2022/05/01 06:07:49;;;;;;;19.98;13.85;;;;;;;11.25;62.11;100887.61;1827443;78;25591;-70
2022/05/01 06:10:15;;;;;;;20.02;13.72;;;;;;;11.45;61.40;100884.52;1827401;78;28109;-70
2022/05/01 06:12:43;;;;;;;23.25;13.15;;;;;;;11.66;60.90;100888.98;1827300;78;25616;-70
2022/05/01 06:15:10;;;;;;;19.52;13.28;;;;;;;11.86;60.18;100888.33;1827420;78;25426;-70
2022/05/01 06:17:37;;;;;;;17.15;12.58;;;;;;;12.06;60.01;100885.78;1827377;78;25609;-70
2022/05/01 06:20:05;;;;;;;18.85;12.68;;;;;;;12.28;59.19;100894.52;1827400;78;25134;-70
2022/05/01 06:22:32;;;;;;;20.90;11.43;;;;;;;12.48;59.28;100895.41;1827428;78;27507;-70
2022/05/01 06:24:59;;;;;;;18.27;11.57;;;;;;;12.74;58.67;100896.73;1821476;78;25597;-69
2022/05/01 06:27:26;;;;;;;17.23;11.57;;;;;;;13.01;58.27;100896.58;1821356;78;25552;-69
2022/05/01 06:29:52;;;;;;;17.85;11.53;;;;;;;13.26;57.45;100895.13;1821254;78;26156;-69
2022/05/01 06:32:19;;;;;;;16.07;10.68;;;;;;;13.54;56.56;100892.80;1821319;78;25376;-69
2022/05/01 06:34:47;;;;;;;14.00;10.50;;;;;;;13.79;55.85;100896.15;1821304;78;27329;-69
2022/05/01 06:37:14;;;;;;;16.85;10.20;;;;;;;14.09;55.26;100899.08;1821268;78;25610;-69
2022/05/01 06:39:40;;;;;;;14.68;9.98;;;;;;;14.43;54.97;100904.88;1821323;78;25614;-69
2022/05/01 06:42:09;;;;;;;18.02;10.13;;;;;;;14.77;54.10;100906.02;1819522;78;25820;-69
2022/05/01 06:44:36;;;;;;;16.10;9.85;;;;;;;15.09;53.40;100906.83;1821487;78;25581;-69
2022/05/01 06:47:05;;;;;;;20.02;10.20;;;;;;;15.36;52.35;100906.20;1854875;77;27336;-69
2022/05/01 06:49:31;;;;;;;15.45;10.45;;;;;;;15.59;51.66;100902.64;1821380;78;25621;-69
2022/05/01 06:51:57;;;;;;;13.50;10.25;;;;;;;15.87;51.30;100904.95;1821787;77;25372;-69
2022/05/01 06:54:23;;;;;;;14.18;8.43;;;;;;;16.19;50.76;100904.02;1821288;78;25551;-70
2022/05/01 06:56:49;;;;;;;15.60;8.73;;;;;;;16.55;50.06;100898.52;1854839;77;25368;-70
2022/05/01 06:59:17;;;;;;;10.68;8.63;;;;;;;16.91;49.23;100895.74;1819797;78;29456;-70
2022/05/01 07:01:43;;;;;;;13.72;10.23;;;;;;;17.29;48.58;100898.20;1788226;78;27139;-70
2022/05/01 07:04:09;;;;;;;24.45;13.53;;;;;;;17.69;47.96;100896.19;1821370;78;25573;-70
2022/05/01 07:06:36;;;;;;;13.45;10.38;;;;;;;18.05;46.75;100896.52;1821331;78;25888;-70
2022/05/01 07:09:02;;;;;;;10.85;8.53;;;;;;;18.38;45.95;100896.89;1821360;78;25582;-70
2022/05/01 07:11:28;;;;;;;15.08;8.50;;;;;;;18.76;45.68;100897.78;1821294;78;28223;-73
2022/05/01 07:13:54;;;;;;;12.88;8.28;;;;;;;19.11;44.94;100895.78;1821156;78;25577;-70
2022/05/01 07:16:22;;;;;;;11.93;7.05;;;;;;;19.48;44.19;100895.53;1821208;78;25644;-70
2022/05/01 07:18:48;;;;;;;9.25;7.45;;;;;;;19.83;43.54;100898.13;1821234;78;25400;-69
2022/05/01 07:21:14;;;;;;;9.85;6.12;;;;;;;20.21;42.89;100901.53;1821293;78;25380;-69
2022/05/01 07:23:40;;;;;;;8.68;6.12;;;;;;;20.58;41.49;100898.34;1821106;78;27321;-69
2022/05/01 07:26:07;;;;;;;10.00;6.00;;;;;;;20.86;40.43;100902.84;1821146;78;25584;-69
2022/05/01 07:28:33;;;;;;;7.75;5.70;;;;;;;21.12;39.93;100895.25;1821305;78;25627;-70
2022/05/01 07:31:01;;;;;;;9.15;6.37;;;;;;;21.44;39.57;100897.16;1821214;78;26188;-69
2022/05/01 07:33:27;;;;;;;8.50;5.67;;;;;;;21.68;38.59;100897.17;1821185;78;25601;-70
2022/05/01 07:35:53;;;;;;;11.68;7.08;;;;;;;21.96;38.04;100894.84;1821266;78;27398;-70
2022/05/01 07:38:19;;;;;;;9.33;6.37;;;;;;;22.30;37.10;100895.48;1821148;78;27180;-69
2022/05/01 07:40:46;;;;;;;7.05;4.55;;;;;;;22.65;36.39;100895.72;1821330;78;25419;-69
2022/05/01 07:43:12;;;;;;;8.50;4.55;;;;;;;22.70;34.97;100894.78;1821241;78;25449;-69
2022/05/01 07:45:38;;;;;;;7.75;5.37;;;;;;;22.75;35.17;100890.91;1821416;78;25415;-70
2022/05/01 07:48:05;;;;;;;8.03;5.17;;;;;;;22.96;34.94;100889.53;1789481;78;27355;-70
2022/05/01 07:50:32;;;;;;;5.53;4.10;;;;;;;23.29;34.31;100887.28;1821398;78;25405;-70
2022/05/01 07:53:02;;;;;;;7.30;4.30;;;;;;;23.58;33.88;100890.27;1821426;78;25404;-70
2022/05/01 07:55:28;;;;;;;7.25;4.20;;;;;;;23.84;33.15;100889.30;1821398;78;25901;-70
2022/05/01 07:57:54;;;;;;;7.72;6.00;;;;;;;24.04;32.51;100895.31;1821523;78;25385;-70
2022/05/01 08:00:21;;;;;;;10.00;5.15;;;;;;;24.17;31.93;100886.11;1789716;78;27620;-69
2022/05/01 08:05:33;;;;;;;9.03;5.85;;;;;;;24.30;30.95;100882.43;1825438;77;25760;-69
2022/05/01 08:07:59;;;;;;;8.08;5.28;;;;;;;24.46;30.72;100877.34;1787130;80;25475;-70
2022/05/01 08:10:25;;;;;;;9.18;4.75;;;;;;;24.64;30.90;100881.58;1825880;78;25720;-70
2022/05/01 08:12:52;;;;;;;7.70;4.55;;;;;;;24.84;30.49;100872.31;1849612;77;27913;-71
2022/05/01 08:15:19;;;;;;;6.70;4.90;;;;;;;25.02;29.91;100876.50;1789726;79;25801;-70
2022/05/01 08:17:46;;;;;;;8.10;4.50;;;;;;;25.11;29.53;100869.97;1807361;78;25634;-70
2022/05/01 08:23:07;;;;;;;4.58;4.05;;;;;;;25.15;29.00;100869.39;1819381;78;25637;-67
2022/05/01 08:25:34;;;;;;;7.42;4.12;;;;;;;25.10;28.93;100864.85;1816314;78;27333;-67
2022/05/01 08:28:01;;;;;;;6.42;4.55;;;;;;;25.16;29.11;100864.06;1824768;78;25618;-69
2022/05/01 08:30:27;;;;;;;7.72;3.87;;;;;;;25.31;28.93;100863.48;1818796;78;25228;-71
2022/05/01 08:32:54;;;;;;;5.83;4.08;;;;;;;25.23;27.96;100859.09;1819994;78;25912;-69
2022/05/01 08:35:21;;;;;;;5.25;4.12;;;;;;;25.22;27.93;100862.28;1819056;78;25540;-70
2022/05/01 08:37:47;;;;;;;4.95;4.37;;;;;;;25.22;28.28;100860.30;1822201;78;27312;-68
2022/05/01 08:40:14;;;;;;;6.25;4.00;;;;;;;25.32;28.13;100859.53;1819069;78;25719;-66
2022/05/01 08:42:42;;;;;;;7.17;4.67;;;;;;;25.39;27.73;100854.59;1816757;78;25725;-67
2022/05/01 08:45:12;;;;;;;5.42;4.25;;;;;;;25.41;27.59;100858.34;1803890;78;25571;-68
2022/05/01 08:47:44;;;;;;;6.65;3.25;;;;;;;25.47;27.07;100845.66;1822519;78;25596;-67
2022/05/01 08:50:11;;;;;;;4.17;3.62;;;;;;;25.64;26.58;100853.74;1818211;78;27530;-69
2022/05/01 08:52:38;;;;;;;8.08;5.28;;;;;;;25.68;26.51;100849.78;1826371;78;25633;-71
2022/05/01 08:55:07;;;;;;;6.50;4.15;;;;;;;25.66;26.42;100845.81;1815216;78;25708;-67
2022/05/01 08:57:34;;;;;;;5.28;3.75;;;;;;;25.76;26.05;100841.45;1819248;78;25629;-69
2022/05/01 09:00:05;;;;;;;5.65;3.70;;;;;;;25.70;26.02;100839.09;1822478;78;25618;-71
2022/05/01 09:02:32;;;;;;;5.47;3.17;;;;;;;25.83;25.88;100841.42;1818055;78;27324;-69
2022/05/01 09:05:01;;;;;;;4.33;3.83;;;;;;;25.84;25.54;100839.64;1820398;78;25700;-70
2022/05/01 09:07:29;;;;;;;6.17;3.60;;;;;;;25.92;24.74;100833.49;1819217;78;25713;-70
2022/05/01 09:09:57;;;;;;;3.95;3.20;;;;;;;25.72;25.01;100837.30;1821449;78;26260;-70
2022/05/01 09:15:12;;;;;;;6.28;3.33;;;;;;;25.77;25.35;100837.50;1817192;78;27926;-70
2022/05/01 09:17:38;;;;;;;5.90;3.27;;;;;;;26.09;24.99;100831.27;1821215;78;25699;-70
2022/05/01 09:20:10;;;;;;;6.33;3.40;;;;;;;26.31;24.77;100822.08;1803539;79;26107;-71
2022/05/01 09:22:52;;;;;;;6.47;4.90;;;;;;;26.52;24.54;100824.70;1821837;78;26140;-67
2022/05/01 09:25:22;;;;;;;7.08;4.00;;;;;;;26.74;24.11;100828.16;1795622;79;25652;-69
2022/05/01 09:27:52;;;;;;;3.65;3.27;;;;;;;26.72;23.59;100819.45;1805370;78;27917;-70
2022/05/01 09:30:23;;;;;;;7.87;4.60;;;;;;;26.67;23.20;100821.88;1802273;78;25664;-69
2022/05/01 09:32:53;;;;;;;6.22;3.87;;;;;;;26.55;23.33;100823.12;1807686;78;25563;-66
2022/05/01 09:35:34;;;;;;;7.35;3.62;;;;;;;26.60;23.82;100823.47;1795330;79;25562;-68
2022/05/01 09:38:24;;;;;;;6.87;4.05;;;;;;;26.78;23.43;100815.64;1794834;79;25636;-67
2022/05/01 09:40:58;;;;;;;6.78;3.98;;;;;;;26.94;23.70;100822.08;1797992;78;27356;-70
2022/05/01 09:43:46;;;;;;;5.17;3.62;;;;;;;27.10;23.83;100813.99;1818061;78;25904;-68
2022/05/01 09:46:24;;;;;;;4.90;3.00;;;;;;;27.29;23.53;100812.65;1795677;79;25708;-68
2022/05/01 09:49:13;;;;;;;3.02;2.60;;;;;;;27.56;23.29;100813.37;1822663;78;25617;-68
2022/05/01 09:51:46;;;;;;;6.85;3.80;;;;;;;27.66;22.57;100812.47;1793745;79;25663;-68
2022/05/01 09:54:26;;;;;;;6.17;3.70;;;;;;;27.61;22.30;100808.76;1761562;79;27330;-68
2022/05/01 09:57:01;;;;;;;4.50;3.30;;;;;;;27.43;21.98;100807.58;1798195;78;25746;-69
2022/05/01 09:59:30;;;;;;;7.35;3.50;;;;;;;27.18;22.08;100805.01;1817177;78;25696;-69
2022/05/01 10:02:02;;;;;;;4.77;3.83;;;;;;;27.12;22.70;100805.25;1778800;78;25508;-69
2022/05/01 10:04:31;;;;;;;5.28;3.47;;;;;;;27.18;22.91;100798.07;1803567;78;25558;-70
2022/05/01 10:06:58;;;;;;;5.28;3.40;;;;;;;27.44;22.84;100809.75;1822714;78;27326;-69
2022/05/01 10:09:34;;;;;;;5.97;3.20;;;;;;;27.48;22.16;100797.98;1832762;77;25640;-70
2022/05/01 10:12:07;;;;;;;3.60;3.00;;;;;;;27.53;22.43;100809.45;1817544;78;25558;-69
2022/05/01 10:14:34;;;;;;;5.20;3.27;;;;;;;27.61;21.86;100806.59;1824932;78;25724;-71
2022/05/01 10:17:03;;;;;;;7.97;3.72;;;;;;;27.52;21.83;100799.53;1812531;78;25293;-68
2022/05/01 10:19:31;;;;;;;5.90;3.83;;;;;;;27.55;21.95;100801.48;1818287;78;29631;-69
2022/05/01 10:22:03;;;;;;;7.45;4.83;;;;;;;27.53;21.57;100802.51;1781277;79;25666;-68
2022/05/01 10:24:29;;;;;;;3.95;3.58;;;;;;;27.48;21.24;100796.02;1817626;78;25634;-68
2022/05/01 10:27:41;;;;;;;3.60;3.00;;;;;;;27.57;21.63;100785.80;1799581;79;25623;-68
2022/05/01 10:33:47;;;;;;;4.40;3.42;;;;;;;27.75;21.35;100795.30;1809014;79;27503;-70
2022/05/01 10:37:09;;;;;;;4.78;3.40;;;;;;;28.01;21.25;100791.05;1741890;79;25915;-68
2022/05/01 10:39:39;;;;;;;4.47;3.02;;;;;;;28.18;20.74;100784.26;1773487;79;25660;-69
2022/05/01 10:42:05;;;;;;;4.12;3.10;;;;;;;28.36;20.90;100781.23;1801057;79;25846;-73
2022/05/01 10:44:36;;;;;;;6.00;3.22;;;;;;;28.28;20.64;100777.17;1818669;78;25617;-70
2022/05/01 10:47:16;;;;;;;6.42;3.20;;;;;;;28.28;20.60;100778.56;1818809;78;27395;-70
2022/05/01 10:49:45;;;;;;;4.72;2.83;;;;;;;28.33;20.31;100780.06;1820226;78;25332;-73
2022/05/01 10:52:23;;;;;;;4.97;2.65;;;;;;;28.11;19.93;100775.41;1820224;78;25602;-73
2022/05/01 10:55:04;;;;;;;7.50;3.90;;;;;;;28.02;20.02;100768.98;1820627;78;25623;-70
2022/05/01 10:57:29;;;;;;;4.25;2.92;;;;;;;28.04;19.66;100763.78;1800569;79;25694;-70
2022/05/01 11:00:15;;;;;;;3.45;3.00;;;;;;;28.07;20.20;100753.22;1819778;78;27907;-71
2022/05/01 11:02:43;;;;;;;5.85;2.98;;;;;;;28.45;20.40;100761.43;1812094;78;25654;-73
2022/05/01 11:05:17;;;;;;;3.95;2.95;;;;;;;28.37;19.56;100751.61;1797461;79;25468;-72
2022/05/01 11:07:44;;;;;;;4.55;2.83;;;;;;;27.76;19.62;100754.59;1791945;78;25868;-71
2022/05/01 11:10:11;;;;;;;6.47;3.27;;;;;;;27.58;20.18;100756.80;1797267;78;25617;-70
2022/05/01 11:12:38;;;;;;;7.95;3.30;;;;;;;27.83;20.51;100754.33;1824921;78;27376;-72
2022/05/01 11:15:07;;;;;;;3.08;2.70;;;;;;;28.18;20.54;100760.05;1780664;78;25735;-70
2022/05/01 11:17:46;;;;;;;3.15;2.52;;;;;;;28.64;20.22;100753.59;1819816;78;26190;-69
2022/05/01 11:20:24;;;;;;;;;;;;;;;29.09;20.17;100757.41;1822140;78;26131;-68
2022/05/01 11:22:52;;;;;;;6.15;3.47;;;;;;;29.51;19.50;100755.05;1821508;78;32427;-68
2022/05/01 11:25:34;;;;;;;4.97;3.40;;;;;;;29.84;19.05;100748.22;1824706;78;27325;-76
2022/05/01 11:28:03;;;;;;;4.33;3.55;;;;;;;30.09;19.09;100749.69;1823748;78;25637;-76
2022/05/01 11:30:33;;;;;;;5.80;3.02;;;;;;;30.52;18.70;100755.06;1824327;78;25598;-77
2022/05/01 11:33:11;;;;;;;4.70;3.33;;;;;;;30.70;18.20;100749.05;1821384;78;25889;-75
2022/05/01 11:36:00;;;;;;;7.40;4.00;;;;;;;30.76;18.13;100749.30;1814006;78;26394;-76
2022/05/01 11:38:41;;;;;;;7.33;3.00;;;;;;;31.03;17.94;100744.83;1791503;78;27423;-76
2022/05/01 11:41:10;;;;;;;5.45;3.02;;;;;;;31.31;17.88;100739.68;1821346;78;25765;-75
2022/05/01 11:43:36;;;;;;;4.97;3.42;;;;;;;31.43;17.51;100740.95;1787202;80;25566;-76
2022/05/01 11:46:05;;;;;;;5.60;4.05;;;;;;;31.59;17.88;100734.55;1821502;78;25848;-76
2022/05/01 11:48:31;;;;;;;6.25;3.95;;;;;;;31.76;17.88;100736.66;1747612;80;25413;-76
2022/05/01 11:51:01;;;;;;;5.72;4.03;;;;;;;31.95;17.79;100730.06;1801691;79;27319;-76
2022/05/01 11:53:29;;;;;;;;;;;;;;;31.97;17.57;100729.62;1804648;79;25966;-76
2022/05/01 12:04:38;;;;;;;4.35;3.27;;;;;;;29.99;17.76;100725.00;1802637;79;28041;-76